sensor_id;sensor_type;location;lat;lon;timestamp;P1;durP1;ratioP1;P2;durP2;ratioP2
79539;SDS011;68991;52.122;5.406;2023-11-22T00:00:13;2.80;;;1.90;;
79539;SDS011;68991;52.122;5.406;2023-11-22T00:02:39;2.60;;;1.90;;
79539;SDS011;68991;52.122;5.406;2023-11-22T00:05:06;3.05;;;2.00;;
79539;SDS011;68991;52.122;5.406;2023-11-22T00:07:33;3.58;;;1.60;;
79539;SDS011;68991;52.122;5.406;2023-11-22T00:10:00;2.70;;;1.90;;
79539;SDS011;68991;52.122;5.406;2023-11-22T00:12:27;5.07;;;1.90;;
79539;SDS011;68991;52.122;5.406;2023-11-22T00:14:54;3.80;;;1.90;;
79539;SDS011;68991;52.122;5.406;2023-11-22T00:17:20;3.67;;;2.10;;
79539;SDS011;68991;52.122;5.406;2023-11-22T00:19:48;3.00;;;1.90;;
79539;SDS011;68991;52.122;5.406;2023-11-22T00:22:14;3.60;;;2.47;;
79539;SDS011;68991;52.122;5.406;2023-11-22T00:24:41;4.68;;;1.85;;
79539;SDS011;68991;52.122;5.406;2023-11-22T00:27:08;3.35;;;1.88;;
79539;SDS011;68991;52.122;5.406;2023-11-22T00:29:36;3.03;;;1.60;;
79539;SDS011;68991;52.122;5.406;2023-11-22T00:32:03;3.38;;;2.10;;
79539;SDS011;68991;52.122;5.406;2023-11-22T00:34:30;2.75;;;1.85;;
79539;SDS011;68991;52.122;5.406;2023-11-22T00:36:57;2.28;;;1.63;;
79539;SDS011;68991;52.122;5.406;2023-11-22T00:39:23;3.50;;;1.85;;
79539;SDS011;68991;52.122;5.406;2023-11-22T00:41:50;2.78;;;1.95;;
79539;SDS011;68991;52.122;5.406;2023-11-22T00:44:17;3.67;;;1.88;;
79539;SDS011;68991;52.122;5.406;2023-11-22T00:46:44;3.08;;;1.95;;
79539;SDS011;68991;52.122;5.406;2023-11-22T00:49:11;2.85;;;1.73;;
79539;SDS011;68991;52.122;5.406;2023-11-22T00:51:39;2.90;;;1.80;;
79539;SDS011;68991;52.122;5.406;2023-11-22T00:54:05;3.28;;;1.80;;
79539;SDS011;68991;52.122;5.406;2023-11-22T00:56:32;2.55;;;1.67;;
79539;SDS011;68991;52.122;5.406;2023-11-22T00:58:58;2.90;;;2.13;;
79539;SDS011;68991;52.122;5.406;2023-11-22T01:01:30;3.03;;;2.17;;
79539;SDS011;68991;52.122;5.406;2023-11-22T01:03:57;2.33;;;1.58;;
79539;SDS011;68991;52.122;5.406;2023-11-22T01:06:24;3.00;;;1.60;;
79539;SDS011;68991;52.122;5.406;2023-11-22T01:08:51;2.92;;;1.67;;
79539;SDS011;68991;52.122;5.406;2023-11-22T01:11:17;3.25;;;1.80;;
79539;SDS011;68991;52.122;5.406;2023-11-22T01:13:43;2.80;;;1.75;;
79539;SDS011;68991;52.122;5.406;2023-11-22T01:16:10;3.03;;;1.85;;
79539;SDS011;68991;52.122;5.406;2023-11-22T01:18:37;2.67;;;1.60;;
79539;SDS011;68991;52.122;5.406;2023-11-22T01:21:05;2.30;;;1.70;;
79539;SDS011;68991;52.122;5.406;2023-11-22T01:23:32;2.38;;;1.55;;
79539;SDS011;68991;52.122;5.406;2023-11-22T01:25:58;2.20;;;1.50;;
79539;SDS011;68991;52.122;5.406;2023-11-22T01:28:25;4.95;;;1.88;;
79539;SDS011;68991;52.122;5.406;2023-11-22T01:31:00;3.10;;;1.73;;
79539;SDS011;68991;52.122;5.406;2023-11-22T01:33:28;2.50;;;1.50;;
79539;SDS011;68991;52.122;5.406;2023-11-22T01:35:55;2.55;;;1.45;;
79539;SDS011;68991;52.122;5.406;2023-11-22T01:38:22;2.92;;;1.58;;
79539;SDS011;68991;52.122;5.406;2023-11-22T01:40:51;2.63;;;1.65;;
79539;SDS011;68991;52.122;5.406;2023-11-22T01:43:18;2.42;;;1.73;;
79539;SDS011;68991;52.122;5.406;2023-11-22T01:45:45;4.38;;;1.73;;
79539;SDS011;68991;52.122;5.406;2023-11-22T01:48:11;2.38;;;1.63;;
79539;SDS011;68991;52.122;5.406;2023-11-22T01:50:38;2.55;;;1.45;;
79539;SDS011;68991;52.122;5.406;2023-11-22T01:53:07;2.78;;;1.77;;
79539;SDS011;68991;52.122;5.406;2023-11-22T01:55:36;2.58;;;1.65;;
79539;SDS011;68991;52.122;5.406;2023-11-22T01:58:02;2.28;;;1.52;;
79539;SDS011;68991;52.122;5.406;2023-11-22T02:00:31;2.78;;;1.58;;
79539;SDS011;68991;52.122;5.406;2023-11-22T02:03:01;2.50;;;1.67;;
79539;SDS011;68991;52.122;5.406;2023-11-22T02:05:29;2.20;;;1.58;;
79539;SDS011;68991;52.122;5.406;2023-11-22T02:07:55;2.85;;;1.80;;
79539;SDS011;68991;52.122;5.406;2023-11-22T02:10:23;2.15;;;1.50;;
79539;SDS011;68991;52.122;5.406;2023-11-22T02:12:50;3.25;;;1.70;;
79539;SDS011;68991;52.122;5.406;2023-11-22T02:15:16;2.95;;;2.10;;
79539;SDS011;68991;52.122;5.406;2023-11-22T02:17:43;2.33;;;1.58;;
79539;SDS011;68991;52.122;5.406;2023-11-22T02:20:10;3.30;;;1.88;;
79539;SDS011;68991;52.122;5.406;2023-11-22T02:22:43;2.67;;;1.58;;
79539;SDS011;68991;52.122;5.406;2023-11-22T02:25:12;1.92;;;1.52;;
79539;SDS011;68991;52.122;5.406;2023-11-22T02:27:38;3.92;;;1.70;;
79539;SDS011;68991;52.122;5.406;2023-11-22T02:30:06;3.83;;;1.50;;
79539;SDS011;68991;52.122;5.406;2023-11-22T02:32:33;2.85;;;1.60;;
79539;SDS011;68991;52.122;5.406;2023-11-22T02:34:59;2.97;;;1.70;;
79539;SDS011;68991;52.122;5.406;2023-11-22T02:37:26;2.40;;;1.70;;
79539;SDS011;68991;52.122;5.406;2023-11-22T02:40:16;3.25;;;1.70;;
79539;SDS011;68991;52.122;5.406;2023-11-22T02:42:40;2.13;;;1.40;;
79539;SDS011;68991;52.122;5.406;2023-11-22T02:45:06;2.28;;;1.40;;
79539;SDS011;68991;52.122;5.406;2023-11-22T02:47:33;2.42;;;1.77;;
79539;SDS011;68991;52.122;5.406;2023-11-22T02:50:01;2.55;;;1.60;;
79539;SDS011;68991;52.122;5.406;2023-11-22T02:52:28;2.25;;;1.60;;
79539;SDS011;68991;52.122;5.406;2023-11-22T02:54:55;2.63;;;1.80;;
79539;SDS011;68991;52.122;5.406;2023-11-22T02:57:22;3.63;;;1.60;;
79539;SDS011;68991;52.122;5.406;2023-11-22T02:59:48;2.03;;;1.35;;
79539;SDS011;68991;52.122;5.406;2023-11-22T03:02:15;3.20;;;1.70;;
79539;SDS011;68991;52.122;5.406;2023-11-22T03:04:43;2.70;;;1.70;;
79539;SDS011;68991;52.122;5.406;2023-11-22T03:07:09;2.25;;;1.40;;
79539;SDS011;68991;52.122;5.406;2023-11-22T03:09:36;2.33;;;1.60;;
79539;SDS011;68991;52.122;5.406;2023-11-22T03:12:03;2.25;;;1.40;;
79539;SDS011;68991;52.122;5.406;2023-11-22T03:14:29;2.10;;;1.40;;
79539;SDS011;68991;52.122;5.406;2023-11-22T03:16:56;2.95;;;1.58;;
79539;SDS011;68991;52.122;5.406;2023-11-22T03:19:22;2.15;;;1.40;;
79539;SDS011;68991;52.122;5.406;2023-11-22T03:21:50;2.47;;;1.42;;
79539;SDS011;68991;52.122;5.406;2023-11-22T03:24:16;2.90;;;1.40;;
79539;SDS011;68991;52.122;5.406;2023-11-22T03:26:43;2.35;;;1.50;;
79539;SDS011;68991;52.122;5.406;2023-11-22T03:29:11;3.42;;;1.58;;
79539;SDS011;68991;52.122;5.406;2023-11-22T03:31:38;1.90;;;1.30;;
79539;SDS011;68991;52.122;5.406;2023-11-22T03:34:05;2.58;;;1.52;;
79539;SDS011;68991;52.122;5.406;2023-11-22T03:36:32;2.08;;;1.33;;
79539;SDS011;68991;52.122;5.406;2023-11-22T03:38:58;1.90;;;1.35;;
79539;SDS011;68991;52.122;5.406;2023-11-22T03:41:25;3.25;;;1.20;;
79539;SDS011;68991;52.122;5.406;2023-11-22T03:43:51;2.65;;;1.45;;
79539;SDS011;68991;52.122;5.406;2023-11-22T03:46:18;2.15;;;1.45;;
79539;SDS011;68991;52.122;5.406;2023-11-22T03:48:44;2.47;;;1.58;;
79539;SDS011;68991;52.122;5.406;2023-11-22T03:51:11;3.17;;;1.52;;
79539;SDS011;68991;52.122;5.406;2023-11-22T03:53:37;2.15;;;1.40;;
79539;SDS011;68991;52.122;5.406;2023-11-22T03:56:04;3.30;;;1.52;;
79539;SDS011;68991;52.122;5.406;2023-11-22T03:58:31;1.65;;;1.33;;
79539;SDS011;68991;52.122;5.406;2023-11-22T04:00:58;2.10;;;1.27;;
79539;SDS011;68991;52.122;5.406;2023-11-22T04:03:25;2.08;;;1.35;;
79539;SDS011;68991;52.122;5.406;2023-11-22T04:05:51;2.13;;;1.42;;
79539;SDS011;68991;52.122;5.406;2023-11-22T04:08:18;2.45;;;1.45;;
79539;SDS011;68991;52.122;5.406;2023-11-22T04:10:44;2.20;;;1.33;;
79539;SDS011;68991;52.122;5.406;2023-11-22T04:13:11;2.00;;;1.50;;
79539;SDS011;68991;52.122;5.406;2023-11-22T04:15:38;2.47;;;1.33;;
79539;SDS011;68991;52.122;5.406;2023-11-22T04:18:05;2.60;;;1.35;;
79539;SDS011;68991;52.122;5.406;2023-11-22T04:20:32;2.60;;;1.50;;
79539;SDS011;68991;52.122;5.406;2023-11-22T04:22:58;3.17;;;1.30;;
79539;SDS011;68991;52.122;5.406;2023-11-22T04:25:25;2.10;;;1.38;;
79539;SDS011;68991;52.122;5.406;2023-11-22T04:27:51;1.98;;;1.30;;
79539;SDS011;68991;52.122;5.406;2023-11-22T04:30:18;2.72;;;1.73;;
79539;SDS011;68991;52.122;5.406;2023-11-22T04:32:44;2.25;;;1.52;;
79539;SDS011;68991;52.122;5.406;2023-11-22T04:35:11;2.75;;;1.52;;
79539;SDS011;68991;52.122;5.406;2023-11-22T04:37:38;2.15;;;1.40;;
79539;SDS011;68991;52.122;5.406;2023-11-22T04:40:05;3.35;;;1.75;;
79539;SDS011;68991;52.122;5.406;2023-11-22T04:42:34;2.40;;;1.45;;
79539;SDS011;68991;52.122;5.406;2023-11-22T04:45:05;3.15;;;1.40;;
79539;SDS011;68991;52.122;5.406;2023-11-22T04:47:32;5.00;;;1.48;;
79539;SDS011;68991;52.122;5.406;2023-11-22T04:49:59;2.70;;;1.60;;
79539;SDS011;68991;52.122;5.406;2023-11-22T04:52:26;3.00;;;1.40;;
79539;SDS011;68991;52.122;5.406;2023-11-22T04:54:55;2.35;;;1.52;;
79539;SDS011;68991;52.122;5.406;2023-11-22T04:57:21;2.70;;;1.42;;
79539;SDS011;68991;52.122;5.406;2023-11-22T04:59:48;2.10;;;1.63;;
79539;SDS011;68991;52.122;5.406;2023-11-22T05:02:14;2.17;;;1.33;;
79539;SDS011;68991;52.122;5.406;2023-11-22T05:04:42;1.95;;;1.33;;
79539;SDS011;68991;52.122;5.406;2023-11-22T05:07:09;2.67;;;1.67;;
79539;SDS011;68991;52.122;5.406;2023-11-22T05:09:35;2.10;;;1.38;;
79539;SDS011;68991;52.122;5.406;2023-11-22T05:12:02;2.13;;;1.50;;
79539;SDS011;68991;52.122;5.406;2023-11-22T05:14:30;2.30;;;1.60;;
79539;SDS011;68991;52.122;5.406;2023-11-22T05:16:56;2.63;;;1.40;;
79539;SDS011;68991;52.122;5.406;2023-11-22T05:19:23;2.85;;;1.52;;
79539;SDS011;68991;52.122;5.406;2023-11-22T05:21:49;2.35;;;1.67;;
79539;SDS011;68991;52.122;5.406;2023-11-22T05:24:16;2.58;;;1.70;;
79539;SDS011;68991;52.122;5.406;2023-11-22T05:26:42;5.90;;;1.33;;
79539;SDS011;68991;52.122;5.406;2023-11-22T05:29:09;4.60;;;1.63;;
79539;SDS011;68991;52.122;5.406;2023-11-22T05:31:36;2.30;;;1.45;;
79539;SDS011;68991;52.122;5.406;2023-11-22T05:34:03;4.68;;;1.48;;
79539;SDS011;68991;52.122;5.406;2023-11-22T05:36:30;3.17;;;1.30;;
79539;SDS011;68991;52.122;5.406;2023-11-22T05:38:56;3.35;;;1.65;;
79539;SDS011;68991;52.122;5.406;2023-11-22T05:41:25;2.33;;;1.30;;
79539;SDS011;68991;52.122;5.406;2023-11-22T05:43:52;2.35;;;1.38;;
79539;SDS011;68991;52.122;5.406;2023-11-22T05:46:19;2.17;;;1.50;;
79539;SDS011;68991;52.122;5.406;2023-11-22T05:48:51;4.55;;;1.77;;
79539;SDS011;68991;52.122;5.406;2023-11-22T05:51:18;3.50;;;2.03;;
79539;SDS011;68991;52.122;5.406;2023-11-22T05:53:45;2.90;;;1.85;;
79539;SDS011;68991;52.122;5.406;2023-11-22T05:56:11;3.42;;;1.77;;
79539;SDS011;68991;52.122;5.406;2023-11-22T05:58:38;4.60;;;1.67;;
79539;SDS011;68991;52.122;5.406;2023-11-22T06:01:05;3.65;;;1.92;;
79539;SDS011;68991;52.122;5.406;2023-11-22T06:03:32;4.38;;;2.00;;
79539;SDS011;68991;52.122;5.406;2023-11-22T06:05:59;3.30;;;2.03;;
79539;SDS011;68991;52.122;5.406;2023-11-22T06:08:26;3.10;;;1.90;;
79539;SDS011;68991;52.122;5.406;2023-11-22T06:10:52;3.78;;;1.77;;
79539;SDS011;68991;52.122;5.406;2023-11-22T06:13:19;2.72;;;1.85;;
79539;SDS011;68991;52.122;5.406;2023-11-22T06:15:46;3.65;;;1.75;;
79539;SDS011;68991;52.122;5.406;2023-11-22T06:18:12;3.25;;;1.70;;
79539;SDS011;68991;52.122;5.406;2023-11-22T06:20:40;2.20;;;1.60;;
79539;SDS011;68991;52.122;5.406;2023-11-22T06:23:06;1.98;;;1.55;;
79539;SDS011;68991;52.122;5.406;2023-11-22T06:25:33;3.25;;;1.63;;
79539;SDS011;68991;52.122;5.406;2023-11-22T06:28:00;3.05;;;1.50;;
79539;SDS011;68991;52.122;5.406;2023-11-22T06:30:28;2.50;;;1.52;;
79539;SDS011;68991;52.122;5.406;2023-11-22T06:32:56;4.13;;;1.77;;
79539;SDS011;68991;52.122;5.406;2023-11-22T06:35:23;3.58;;;1.75;;
79539;SDS011;68991;52.122;5.406;2023-11-22T06:37:49;2.63;;;1.70;;
79539;SDS011;68991;52.122;5.406;2023-11-22T06:40:16;2.85;;;1.60;;
79539;SDS011;68991;52.122;5.406;2023-11-22T06:42:43;3.08;;;2.00;;
79539;SDS011;68991;52.122;5.406;2023-11-22T06:45:09;3.80;;;1.70;;
79539;SDS011;68991;52.122;5.406;2023-11-22T06:47:36;1.70;;;1.27;;
79539;SDS011;68991;52.122;5.406;2023-11-22T06:50:03;2.65;;;1.67;;
79539;SDS011;68991;52.122;5.406;2023-11-22T06:52:35;2.58;;;1.50;;
79539;SDS011;68991;52.122;5.406;2023-11-22T06:55:02;2.40;;;1.70;;
79539;SDS011;68991;52.122;5.406;2023-11-22T06:57:29;2.60;;;1.90;;
79539;SDS011;68991;52.122;5.406;2023-11-22T06:59:55;3.08;;;1.45;;
79539;SDS011;68991;52.122;5.406;2023-11-22T07:02:23;2.75;;;1.40;;
79539;SDS011;68991;52.122;5.406;2023-11-22T07:04:49;3.17;;;1.50;;
79539;SDS011;68991;52.122;5.406;2023-11-22T07:07:16;2.70;;;1.73;;
79539;SDS011;68991;52.122;5.406;2023-11-22T07:09:42;2.67;;;1.70;;
79539;SDS011;68991;52.122;5.406;2023-11-22T07:12:10;3.03;;;2.00;;
79539;SDS011;68991;52.122;5.406;2023-11-22T07:14:36;3.80;;;1.88;;
79539;SDS011;68991;52.122;5.406;2023-11-22T07:17:03;4.00;;;1.65;;
79539;SDS011;68991;52.122;5.406;2023-11-22T07:19:33;3.03;;;1.75;;
79539;SDS011;68991;52.122;5.406;2023-11-22T07:22:04;2.67;;;1.73;;
79539;SDS011;68991;52.122;5.406;2023-11-22T07:24:50;3.72;;;1.88;;
79539;SDS011;68991;52.122;5.406;2023-11-22T07:27:27;4.43;;;1.58;;
79539;SDS011;68991;52.122;5.406;2023-11-22T07:29:54;3.97;;;2.00;;
79539;SDS011;68991;52.122;5.406;2023-11-22T07:32:21;2.05;;;1.40;;
79539;SDS011;68991;52.122;5.406;2023-11-22T07:34:47;4.45;;;2.13;;
79539;SDS011;68991;52.122;5.406;2023-11-22T07:37:14;2.95;;;1.90;;
79539;SDS011;68991;52.122;5.406;2023-11-22T07:39:41;4.07;;;1.88;;
79539;SDS011;68991;52.122;5.406;2023-11-22T07:42:09;2.50;;;1.90;;
79539;SDS011;68991;52.122;5.406;2023-11-22T07:44:35;3.10;;;1.70;;
79539;SDS011;68991;52.122;5.406;2023-11-22T07:47:04;4.93;;;1.90;;
79539;SDS011;68991;52.122;5.406;2023-11-22T07:49:35;2.65;;;1.80;;
79539;SDS011;68991;52.122;5.406;2023-11-22T07:52:05;4.75;;;1.67;;
79539;SDS011;68991;52.122;5.406;2023-11-22T07:54:32;3.15;;;1.80;;
79539;SDS011;68991;52.122;5.406;2023-11-22T07:56:59;3.95;;;1.95;;
79539;SDS011;68991;52.122;5.406;2023-11-22T07:59:25;4.95;;;2.13;;
79539;SDS011;68991;52.122;5.406;2023-11-22T08:01:52;3.50;;;1.90;;
79539;SDS011;68991;52.122;5.406;2023-11-22T08:04:20;3.28;;;1.83;;
79539;SDS011;68991;52.122;5.406;2023-11-22T08:06:46;3.30;;;1.33;;
79539;SDS011;68991;52.122;5.406;2023-11-22T08:09:14;2.88;;;1.83;;
79539;SDS011;68991;52.122;5.406;2023-11-22T08:11:42;3.72;;;1.92;;
79539;SDS011;68991;52.122;5.406;2023-11-22T08:14:09;2.70;;;1.75;;
79539;SDS011;68991;52.122;5.406;2023-11-22T08:16:35;3.72;;;1.85;;
79539;SDS011;68991;52.122;5.406;2023-11-22T08:19:04;2.85;;;1.70;;
79539;SDS011;68991;52.122;5.406;2023-11-22T08:21:34;3.20;;;1.65;;
79539;SDS011;68991;52.122;5.406;2023-11-22T08:24:00;2.47;;;1.60;;
79539;SDS011;68991;52.122;5.406;2023-11-22T08:26:27;2.35;;;1.77;;
79539;SDS011;68991;52.122;5.406;2023-11-22T08:28:54;2.72;;;1.73;;
79539;SDS011;68991;52.122;5.406;2023-11-22T08:31:21;3.40;;;1.70;;
79539;SDS011;68991;52.122;5.406;2023-11-22T08:33:48;2.63;;;1.73;;
79539;SDS011;68991;52.122;5.406;2023-11-22T08:36:14;3.00;;;1.75;;
79539;SDS011;68991;52.122;5.406;2023-11-22T08:38:41;2.70;;;1.58;;
79539;SDS011;68991;52.122;5.406;2023-11-22T08:41:09;2.47;;;1.65;;
79539;SDS011;68991;52.122;5.406;2023-11-22T08:43:40;2.65;;;1.52;;
79539;SDS011;68991;52.122;5.406;2023-11-22T08:46:07;3.50;;;1.50;;
79539;SDS011;68991;52.122;5.406;2023-11-22T08:48:40;5.93;;;1.83;;
79539;SDS011;68991;52.122;5.406;2023-11-22T08:51:08;2.50;;;1.85;;
79539;SDS011;68991;52.122;5.406;2023-11-22T08:53:36;2.30;;;1.60;;
79539;SDS011;68991;52.122;5.406;2023-11-22T08:56:03;3.25;;;1.80;;
79539;SDS011;68991;52.122;5.406;2023-11-22T08:58:32;2.67;;;1.88;;
79539;SDS011;68991;52.122;5.406;2023-11-22T09:00:59;1.92;;;1.55;;
79539;SDS011;68991;52.122;5.406;2023-11-22T09:03:26;3.53;;;1.75;;
79539;SDS011;68991;52.122;5.406;2023-11-22T09:05:53;4.00;;;1.92;;
79539;SDS011;68991;52.122;5.406;2023-11-22T09:08:20;3.20;;;1.77;;
79539;SDS011;68991;52.122;5.406;2023-11-22T09:10:52;2.55;;;1.88;;
79539;SDS011;68991;52.122;5.406;2023-11-22T09:13:19;2.45;;;1.42;;
79539;SDS011;68991;52.122;5.406;2023-11-22T09:15:47;3.55;;;1.92;;
79539;SDS011;68991;52.122;5.406;2023-11-22T09:18:13;2.53;;;1.83;;
79539;SDS011;68991;52.122;5.406;2023-11-22T09:20:41;2.83;;;1.90;;
79539;SDS011;68991;52.122;5.406;2023-11-22T09:23:11;2.70;;;1.55;;
79539;SDS011;68991;52.122;5.406;2023-11-22T09:25:40;3.78;;;2.05;;
79539;SDS011;68991;52.122;5.406;2023-11-22T09:28:07;2.90;;;1.92;;
79539;SDS011;68991;52.122;5.406;2023-11-22T09:30:35;2.45;;;1.90;;
79539;SDS011;68991;52.122;5.406;2023-11-22T09:33:13;4.13;;;1.90;;
79539;SDS011;68991;52.122;5.406;2023-11-22T09:35:42;3.70;;;2.00;;
79539;SDS011;68991;52.122;5.406;2023-11-22T09:38:10;2.80;;;1.90;;
79539;SDS011;68991;52.122;5.406;2023-11-22T09:40:45;3.35;;;1.83;;
79539;SDS011;68991;52.122;5.406;2023-11-22T09:43:13;3.30;;;1.75;;
79539;SDS011;68991;52.122;5.406;2023-11-22T09:45:48;2.65;;;1.75;;
79539;SDS011;68991;52.122;5.406;2023-11-22T09:48:22;3.47;;;2.33;;
79539;SDS011;68991;52.122;5.406;2023-11-22T09:56:01;4.22;;;2.00;;
79539;SDS011;68991;52.122;5.406;2023-11-22T09:58:29;4.13;;;2.33;;
79539;SDS011;68991;52.122;5.406;2023-11-22T10:00:59;3.13;;;1.77;;
79539;SDS011;68991;52.122;5.406;2023-11-22T10:03:26;3.38;;;1.80;;
79539;SDS011;68991;52.122;5.406;2023-11-22T10:05:57;2.35;;;1.77;;
79539;SDS011;68991;52.122;5.406;2023-11-22T10:08:30;2.40;;;1.80;;
79539;SDS011;68991;52.122;5.406;2023-11-22T10:10:57;2.92;;;2.10;;
79539;SDS011;68991;52.122;5.406;2023-11-22T10:13:25;3.28;;;1.90;;
79539;SDS011;68991;52.122;5.406;2023-11-22T10:15:53;3.30;;;2.20;;
79539;SDS011;68991;52.122;5.406;2023-11-22T10:18:20;2.70;;;1.77;;
79539;SDS011;68991;52.122;5.406;2023-11-22T10:20:48;2.63;;;1.77;;
79539;SDS011;68991;52.122;5.406;2023-11-22T10:23:19;2.22;;;1.65;;
79539;SDS011;68991;52.122;5.406;2023-11-22T10:25:46;3.10;;;1.90;;
79539;SDS011;68991;52.122;5.406;2023-11-22T10:28:19;2.75;;;2.22;;
79539;SDS011;68991;52.122;5.406;2023-11-22T10:30:47;3.47;;;2.20;;
79539;SDS011;68991;52.122;5.406;2023-11-22T10:33:16;3.35;;;2.00;;
79539;SDS011;68991;52.122;5.406;2023-11-22T10:35:43;4.38;;;2.15;;
79539;SDS011;68991;52.122;5.406;2023-11-22T10:38:14;3.15;;;2.20;;
79539;SDS011;68991;52.122;5.406;2023-11-22T10:40:41;2.65;;;1.98;;
79539;SDS011;68991;52.122;5.406;2023-11-22T10:43:11;3.58;;;2.20;;
79539;SDS011;68991;52.122;5.406;2023-11-22T10:45:38;3.38;;;2.22;;
79539;SDS011;68991;52.122;5.406;2023-11-22T10:48:07;4.03;;;2.28;;
79539;SDS011;68991;52.122;5.406;2023-11-22T10:50:35;3.17;;;2.20;;
79539;SDS011;68991;52.122;5.406;2023-11-22T10:53:04;3.03;;;1.95;;
79539;SDS011;68991;52.122;5.406;2023-11-22T10:55:33;3.13;;;2.15;;
79539;SDS011;68991;52.122;5.406;2023-11-22T10:58:03;3.97;;;2.47;;
79539;SDS011;68991;52.122;5.406;2023-11-22T11:00:32;3.20;;;2.30;;
79539;SDS011;68991;52.122;5.406;2023-11-22T11:03:01;3.45;;;2.13;;
79539;SDS011;68991;52.122;5.406;2023-11-22T11:05:33;3.28;;;2.20;;
79539;SDS011;68991;52.122;5.406;2023-11-22T11:08:08;3.13;;;2.25;;
79539;SDS011;68991;52.122;5.406;2023-11-22T11:10:40;3.50;;;1.88;;
79539;SDS011;68991;52.122;5.406;2023-11-22T11:13:12;4.00;;;2.22;;
79539;SDS011;68991;52.122;5.406;2023-11-22T11:15:40;2.88;;;1.85;;
79539;SDS011;68991;52.122;5.406;2023-11-22T11:18:15;2.97;;;2.05;;
79539;SDS011;68991;52.122;5.406;2023-11-22T11:20:48;3.58;;;2.00;;
79539;SDS011;68991;52.122;5.406;2023-11-22T11:23:19;3.97;;;2.30;;
79539;SDS011;68991;52.122;5.406;2023-11-22T11:25:58;4.00;;;2.40;;
79539;SDS011;68991;52.122;5.406;2023-11-22T11:28:46;4.25;;;2.13;;
79539;SDS011;68991;52.122;5.406;2023-11-22T11:31:16;2.90;;;2.00;;
79539;SDS011;68991;52.122;5.406;2023-11-22T11:36:28;3.75;;;2.17;;
79539;SDS011;68991;52.122;5.406;2023-11-22T11:38:59;3.08;;;2.05;;
79539;SDS011;68991;52.122;5.406;2023-11-22T11:41:31;2.55;;;1.90;;
79539;SDS011;68991;52.122;5.406;2023-11-22T11:44:00;4.05;;;2.17;;
79539;SDS011;68991;52.122;5.406;2023-11-22T11:46:28;3.42;;;2.35;;
79539;SDS011;68991;52.122;5.406;2023-11-22T11:48:55;3.55;;;2.08;;
79539;SDS011;68991;52.122;5.406;2023-11-22T11:51:24;3.28;;;2.25;;
79539;SDS011;68991;52.122;5.406;2023-11-22T11:53:52;4.20;;;2.00;;
79539;SDS011;68991;52.122;5.406;2023-11-22T11:56:20;3.10;;;1.92;;
79539;SDS011;68991;52.122;5.406;2023-11-22T11:58:48;3.63;;;2.33;;
79539;SDS011;68991;52.122;5.406;2023-11-22T12:01:16;3.28;;;1.90;;
79539;SDS011;68991;52.122;5.406;2023-11-22T12:03:43;3.72;;;2.13;;
79539;SDS011;68991;52.122;5.406;2023-11-22T12:06:10;3.45;;;2.08;;
79539;SDS011;68991;52.122;5.406;2023-11-22T12:11:07;4.10;;;2.10;;
79539;SDS011;68991;52.122;5.406;2023-11-22T12:13:34;3.90;;;2.22;;
79539;SDS011;68991;52.122;5.406;2023-11-22T12:16:04;3.67;;;1.95;;
79539;SDS011;68991;52.122;5.406;2023-11-22T12:18:43;3.63;;;2.35;;
79539;SDS011;68991;52.122;5.406;2023-11-22T12:21:11;4.40;;;2.22;;
79539;SDS011;68991;52.122;5.406;2023-11-22T12:23:41;5.15;;;1.90;;
79539;SDS011;68991;52.122;5.406;2023-11-22T12:26:10;2.30;;;1.70;;
79539;SDS011;68991;52.122;5.406;2023-11-22T12:28:39;2.65;;;1.60;;
79539;SDS011;68991;52.122;5.406;2023-11-22T12:31:12;2.45;;;1.70;;
79539;SDS011;68991;52.122;5.406;2023-11-22T12:33:43;3.35;;;2.00;;
79539;SDS011;68991;52.122;5.406;2023-11-22T12:36:11;2.75;;;1.70;;
79539;SDS011;68991;52.122;5.406;2023-11-22T12:38:42;4.15;;;1.83;;
79539;SDS011;68991;52.122;5.406;2023-11-22T12:41:08;5.57;;;2.00;;
79539;SDS011;68991;52.122;5.406;2023-11-22T12:43:35;3.65;;;1.67;;
79539;SDS011;68991;52.122;5.406;2023-11-22T12:46:13;3.42;;;1.58;;
79539;SDS011;68991;52.122;5.406;2023-11-22T12:48:42;3.28;;;1.80;;
79539;SDS011;68991;52.122;5.406;2023-11-22T12:51:17;3.33;;;1.80;;
79539;SDS011;68991;52.122;5.406;2023-11-22T12:53:48;3.50;;;1.92;;
79539;SDS011;68991;52.122;5.406;2023-11-22T12:56:16;3.25;;;1.80;;
79539;SDS011;68991;52.122;5.406;2023-11-22T12:58:43;3.65;;;1.63;;
79539;SDS011;68991;52.122;5.406;2023-11-22T13:01:09;3.33;;;1.90;;
79539;SDS011;68991;52.122;5.406;2023-11-22T13:03:36;4.35;;;1.83;;
79539;SDS011;68991;52.122;5.406;2023-11-22T13:06:02;3.80;;;1.80;;
79539;SDS011;68991;52.122;5.406;2023-11-22T13:08:30;2.65;;;1.60;;
79539;SDS011;68991;52.122;5.406;2023-11-22T13:10:57;2.80;;;1.58;;
79539;SDS011;68991;52.122;5.406;2023-11-22T13:13:25;4.70;;;1.70;;
79539;SDS011;68991;52.122;5.406;2023-11-22T13:15:53;4.60;;;1.92;;
79539;SDS011;68991;52.122;5.406;2023-11-22T13:18:20;3.72;;;1.52;;
79539;SDS011;68991;52.122;5.406;2023-11-22T13:20:47;3.72;;;2.00;;
79539;SDS011;68991;52.122;5.406;2023-11-22T13:23:15;3.72;;;1.90;;
79539;SDS011;68991;52.122;5.406;2023-11-22T13:25:42;2.15;;;1.40;;
79539;SDS011;68991;52.122;5.406;2023-11-22T13:28:10;2.90;;;1.90;;
79539;SDS011;68991;52.122;5.406;2023-11-22T13:30:37;3.22;;;1.75;;
79539;SDS011;68991;52.122;5.406;2023-11-22T13:33:03;3.70;;;1.88;;
79539;SDS011;68991;52.122;5.406;2023-11-22T13:35:30;3.05;;;1.90;;
79539;SDS011;68991;52.122;5.406;2023-11-22T13:38:03;2.83;;;1.98;;
79539;SDS011;68991;52.122;5.406;2023-11-22T13:40:36;3.25;;;1.90;;
79539;SDS011;68991;52.122;5.406;2023-11-22T13:43:06;3.35;;;2.00;;
79539;SDS011;68991;52.122;5.406;2023-11-22T13:45:34;3.30;;;2.08;;
79539;SDS011;68991;52.122;5.406;2023-11-22T13:48:03;3.85;;;1.90;;
79539;SDS011;68991;52.122;5.406;2023-11-22T13:50:33;3.45;;;1.98;;
79539;SDS011;68991;52.122;5.406;2023-11-22T13:53:00;5.00;;;2.20;;
79539;SDS011;68991;52.122;5.406;2023-11-22T13:55:27;2.60;;;1.83;;
79539;SDS011;68991;52.122;5.406;2023-11-22T13:57:55;3.75;;;1.83;;
79539;SDS011;68991;52.122;5.406;2023-11-22T14:00:24;3.13;;;1.73;;
79539;SDS011;68991;52.122;5.406;2023-11-22T14:02:56;3.05;;;2.03;;
79539;SDS011;68991;52.122;5.406;2023-11-22T14:05:23;2.80;;;1.77;;
79539;SDS011;68991;52.122;5.406;2023-11-22T14:07:51;3.20;;;1.67;;
79539;SDS011;68991;52.122;5.406;2023-11-22T14:10:17;3.05;;;1.88;;
79539;SDS011;68991;52.122;5.406;2023-11-22T14:12:45;3.03;;;2.00;;
79539;SDS011;68991;52.122;5.406;2023-11-22T14:15:12;5.28;;;2.50;;
79539;SDS011;68991;52.122;5.406;2023-11-22T14:17:39;3.95;;;2.10;;
79539;SDS011;68991;52.122;5.406;2023-11-22T14:20:08;3.70;;;1.98;;
79539;SDS011;68991;52.122;5.406;2023-11-22T14:22:35;3.00;;;1.65;;
79539;SDS011;68991;52.122;5.406;2023-11-22T14:25:02;2.85;;;2.00;;
79539;SDS011;68991;52.122;5.406;2023-11-22T14:27:30;3.30;;;2.10;;
79539;SDS011;68991;52.122;5.406;2023-11-22T14:29:57;4.20;;;1.88;;
79539;SDS011;68991;52.122;5.406;2023-11-22T14:32:23;3.30;;;2.03;;
79539;SDS011;68991;52.122;5.406;2023-11-22T14:34:50;7.03;;;2.30;;
79539;SDS011;68991;52.122;5.406;2023-11-22T14:37:17;3.40;;;1.90;;
79539;SDS011;68991;52.122;5.406;2023-11-22T14:39:43;3.85;;;2.10;;
79539;SDS011;68991;52.122;5.406;2023-11-22T14:42:10;2.97;;;1.80;;
79539;SDS011;68991;52.122;5.406;2023-11-22T14:44:37;4.40;;;1.77;;
79539;SDS011;68991;52.122;5.406;2023-11-22T14:47:04;3.97;;;1.70;;
79539;SDS011;68991;52.122;5.406;2023-11-22T14:49:32;4.57;;;2.20;;
79539;SDS011;68991;52.122;5.406;2023-11-22T14:52:12;2.55;;;1.80;;
79539;SDS011;68991;52.122;5.406;2023-11-22T14:54:39;4.03;;;1.77;;
79539;SDS011;68991;52.122;5.406;2023-11-22T14:57:05;2.88;;;1.83;;
79539;SDS011;68991;52.122;5.406;2023-11-22T14:59:33;3.13;;;1.90;;
79539;SDS011;68991;52.122;5.406;2023-11-22T15:01:59;3.72;;;2.33;;